sensor_id;sensor_type;location;lat;lon;timestamp;P1;durP1;ratioP1;P2;durP2;ratioP2
51594;SDS011;37677;53.254;6.594;2022-11-14T00:00:11;35.53;;;25.27;;
51594;SDS011;37677;53.254;6.594;2022-11-14T00:02:39;35.03;;;25.05;;
51594;SDS011;37677;53.254;6.594;2022-11-14T00:05:05;33.70;;;24.80;;
51594;SDS011;37677;53.254;6.594;2022-11-14T00:07:33;36.13;;;25.90;;
51594;SDS011;37677;53.254;6.594;2022-11-14T00:09:59;36.95;;;26.50;;
51594;SDS011;37677;53.254;6.594;2022-11-14T00:12:25;31.80;;;23.95;;
51594;SDS011;37677;53.254;6.594;2022-11-14T00:14:51;34.58;;;26.75;;
51594;SDS011;37677;53.254;6.594;2022-11-14T00:17:17;37.83;;;27.77;;
51594;SDS011;37677;53.254;6.594;2022-11-14T00:19:42;37.65;;;27.77;;
51594;SDS011;37677;53.254;6.594;2022-11-14T00:22:08;37.20;;;27.33;;
51594;SDS011;37677;53.254;6.594;2022-11-14T00:24:34;38.15;;;27.60;;
51594;SDS011;37677;53.254;6.594;2022-11-14T00:27:00;37.10;;;27.08;;
51594;SDS011;37677;53.254;6.594;2022-11-14T00:29:26;42.05;;;27.92;;
51594;SDS011;37677;53.254;6.594;2022-11-14T00:31:51;36.60;;;27.50;;
51594;SDS011;37677;53.254;6.594;2022-11-14T00:34:17;36.83;;;28.02;;
51594;SDS011;37677;53.254;6.594;2022-11-14T00:36:43;38.45;;;28.20;;
51594;SDS011;37677;53.254;6.594;2022-11-14T00:39:12;37.58;;;28.77;;
51594;SDS011;37677;53.254;6.594;2022-11-14T00:41:39;40.50;;;29.38;;
51594;SDS011;37677;53.254;6.594;2022-11-14T00:44:05;38.70;;;28.38;;
51594;SDS011;37677;53.254;6.594;2022-11-14T00:46:32;39.08;;;28.70;;
51594;SDS011;37677;53.254;6.594;2022-11-14T00:48:58;43.13;;;30.02;;
51594;SDS011;37677;53.254;6.594;2022-11-14T00:51:24;38.28;;;29.67;;
51594;SDS011;37677;53.254;6.594;2022-11-14T00:53:49;41.47;;;31.50;;
51594;SDS011;37677;53.254;6.594;2022-11-14T00:56:15;43.47;;;31.95;;
51594;SDS011;37677;53.254;6.594;2022-11-14T00:58:41;40.17;;;31.10;;
51594;SDS011;37677;53.254;6.594;2022-11-14T01:01:06;44.05;;;32.53;;
51594;SDS011;37677;53.254;6.594;2022-11-14T01:03:32;42.75;;;32.13;;
51594;SDS011;37677;53.254;6.594;2022-11-14T01:06:01;43.88;;;34.38;;
51594;SDS011;37677;53.254;6.594;2022-11-14T01:08:29;43.88;;;35.05;;
51594;SDS011;37677;53.254;6.594;2022-11-14T01:10:54;45.97;;;37.08;;
51594;SDS011;37677;53.254;6.594;2022-11-14T01:13:20;44.25;;;35.88;;
51594;SDS011;37677;53.254;6.594;2022-11-14T01:15:46;48.90;;;37.92;;
51594;SDS011;37677;53.254;6.594;2022-11-14T01:18:14;50.67;;;39.78;;
51594;SDS011;37677;53.254;6.594;2022-11-14T01:20:42;52.85;;;41.75;;
51594;SDS011;37677;53.254;6.594;2022-11-14T01:23:10;53.13;;;42.08;;
51594;SDS011;37677;53.254;6.594;2022-11-14T01:25:37;52.45;;;41.78;;
51594;SDS011;37677;53.254;6.594;2022-11-14T01:28:05;49.33;;;41.15;;
51594;SDS011;37677;53.254;6.594;2022-11-14T01:30:35;52.90;;;43.05;;
51594;SDS011;37677;53.254;6.594;2022-11-14T01:33:02;55.92;;;43.00;;
51594;SDS011;37677;53.254;6.594;2022-11-14T01:35:28;56.35;;;44.35;;
51594;SDS011;37677;53.254;6.594;2022-11-14T01:37:54;54.17;;;44.20;;
51594;SDS011;37677;53.254;6.594;2022-11-14T01:40:20;55.03;;;43.15;;
51594;SDS011;37677;53.254;6.594;2022-11-14T01:45:49;57.25;;;43.13;;
51594;SDS011;37677;53.254;6.594;2022-11-14T01:48:22;58.83;;;45.40;;
51594;SDS011;37677;53.254;6.594;2022-11-14T01:51:04;57.53;;;44.58;;
51594;SDS011;37677;53.254;6.594;2022-11-14T01:53:32;59.83;;;44.47;;
51594;SDS011;37677;53.254;6.594;2022-11-14T01:55:59;60.20;;;46.10;;
51594;SDS011;37677;53.254;6.594;2022-11-14T01:58:28;56.60;;;44.53;;
51594;SDS011;37677;53.254;6.594;2022-11-14T02:00:55;59.25;;;45.45;;
51594;SDS011;37677;53.254;6.594;2022-11-14T02:03:21;56.72;;;44.95;;
51594;SDS011;37677;53.254;6.594;2022-11-14T02:05:47;62.15;;;46.40;;
51594;SDS011;37677;53.254;6.594;2022-11-14T02:08:15;59.40;;;44.00;;
51594;SDS011;37677;53.254;6.594;2022-11-14T02:10:41;56.58;;;44.33;;
51594;SDS011;37677;53.254;6.594;2022-11-14T02:13:07;61.70;;;44.25;;
51594;SDS011;37677;53.254;6.594;2022-11-14T02:15:33;60.60;;;44.97;;
51594;SDS011;37677;53.254;6.594;2022-11-14T02:18:00;64.47;;;47.47;;
51594;SDS011;37677;53.254;6.594;2022-11-14T02:20:27;62.53;;;45.85;;
51594;SDS011;37677;53.254;6.594;2022-11-14T02:22:57;62.78;;;44.58;;
51594;SDS011;37677;53.254;6.594;2022-11-14T02:25:22;66.15;;;46.38;;
51594;SDS011;37677;53.254;6.594;2022-11-14T02:27:49;63.83;;;45.13;;
51594;SDS011;37677;53.254;6.594;2022-11-14T02:30:17;63.22;;;46.80;;
51594;SDS011;37677;53.254;6.594;2022-11-14T02:32:46;61.08;;;46.33;;
51594;SDS011;37677;53.254;6.594;2022-11-14T02:35:12;60.42;;;45.63;;
51594;SDS011;37677;53.254;6.594;2022-11-14T02:37:38;68.07;;;47.10;;
51594;SDS011;37677;53.254;6.594;2022-11-14T02:40:04;59.78;;;44.45;;
51594;SDS011;37677;53.254;6.594;2022-11-14T02:42:30;62.47;;;44.85;;
51594;SDS011;37677;53.254;6.594;2022-11-14T02:44:56;59.92;;;45.30;;
51594;SDS011;37677;53.254;6.594;2022-11-14T02:47:21;59.63;;;44.90;;
51594;SDS011;37677;53.254;6.594;2022-11-14T02:49:49;61.30;;;45.88;;
51594;SDS011;37677;53.254;6.594;2022-11-14T02:52:15;65.25;;;45.50;;
51594;SDS011;37677;53.254;6.594;2022-11-14T02:54:41;60.08;;;45.08;;
51594;SDS011;37677;53.254;6.594;2022-11-14T02:57:07;64.00;;;45.10;;
51594;SDS011;37677;53.254;6.594;2022-11-14T02:59:33;61.70;;;44.30;;
51594;SDS011;37677;53.254;6.594;2022-11-14T03:01:59;62.17;;;46.65;;
51594;SDS011;37677;53.254;6.594;2022-11-14T03:04:24;64.68;;;46.15;;
51594;SDS011;37677;53.254;6.594;2022-11-14T03:06:50;62.30;;;45.05;;
51594;SDS011;37677;53.254;6.594;2022-11-14T03:09:16;59.22;;;45.03;;
51594;SDS011;37677;53.254;6.594;2022-11-14T03:11:42;59.30;;;43.75;;
51594;SDS011;37677;53.254;6.594;2022-11-14T03:14:08;61.85;;;44.65;;
51594;SDS011;37677;53.254;6.594;2022-11-14T03:16:34;61.38;;;44.85;;
51594;SDS011;37677;53.254;6.594;2022-11-14T03:18:59;60.30;;;45.35;;
51594;SDS011;37677;53.254;6.594;2022-11-14T03:21:26;59.38;;;45.40;;
51594;SDS011;37677;53.254;6.594;2022-11-14T03:23:52;55.55;;;43.50;;
51594;SDS011;37677;53.254;6.594;2022-11-14T03:26:17;55.25;;;43.78;;
51594;SDS011;37677;53.254;6.594;2022-11-14T03:28:43;59.63;;;43.50;;
51594;SDS011;37677;53.254;6.594;2022-11-14T03:31:10;63.65;;;45.10;;
51594;SDS011;37677;53.254;6.594;2022-11-14T03:33:37;59.05;;;44.75;;
51594;SDS011;37677;53.254;6.594;2022-11-14T03:36:03;56.05;;;43.72;;
51594;SDS011;37677;53.254;6.594;2022-11-14T03:38:30;56.33;;;44.30;;
51594;SDS011;37677;53.254;6.594;2022-11-14T03:40:56;60.10;;;45.50;;
51594;SDS011;37677;53.254;6.594;2022-11-14T03:43:23;59.17;;;45.60;;
51594;SDS011;37677;53.254;6.594;2022-11-14T03:45:50;60.47;;;43.60;;
51594;SDS011;37677;53.254;6.594;2022-11-14T03:48:16;56.95;;;44.67;;
51594;SDS011;37677;53.254;6.594;2022-11-14T03:50:42;56.30;;;43.25;;
51594;SDS011;37677;53.254;6.594;2022-11-14T03:53:09;53.83;;;43.33;;
51594;SDS011;37677;53.254;6.594;2022-11-14T03:55:35;55.35;;;44.42;;
51594;SDS011;37677;53.254;6.594;2022-11-14T03:58:02;54.78;;;43.45;;
51594;SDS011;37677;53.254;6.594;2022-11-14T04:00:28;54.90;;;42.67;;
51594;SDS011;37677;53.254;6.594;2022-11-14T04:02:56;57.00;;;45.63;;
51594;SDS011;37677;53.254;6.594;2022-11-14T04:05:23;53.30;;;43.10;;
51594;SDS011;37677;53.254;6.594;2022-11-14T04:07:48;55.50;;;44.42;;
51594;SDS011;37677;53.254;6.594;2022-11-14T04:10:15;57.50;;;44.47;;
51594;SDS011;37677;53.254;6.594;2022-11-14T04:12:45;53.60;;;42.65;;
51594;SDS011;37677;53.254;6.594;2022-11-14T04:15:16;54.92;;;44.80;;
51594;SDS011;37677;53.254;6.594;2022-11-14T04:17:42;57.00;;;44.00;;
51594;SDS011;37677;53.254;6.594;2022-11-14T04:20:08;57.05;;;43.13;;
51594;SDS011;37677;53.254;6.594;2022-11-14T04:22:34;56.38;;;43.85;;
51594;SDS011;37677;53.254;6.594;2022-11-14T04:25:00;50.83;;;43.10;;
51594;SDS011;37677;53.254;6.594;2022-11-14T04:27:25;54.28;;;44.55;;
51594;SDS011;37677;53.254;6.594;2022-11-14T04:29:51;53.42;;;43.47;;
51594;SDS011;37677;53.254;6.594;2022-11-14T04:32:17;53.00;;;44.50;;
51594;SDS011;37677;53.254;6.594;2022-11-14T04:34:42;54.10;;;44.40;;
51594;SDS011;37677;53.254;6.594;2022-11-14T04:37:09;57.70;;;46.58;;
51594;SDS011;37677;53.254;6.594;2022-11-14T04:39:34;54.10;;;45.45;;
51594;SDS011;37677;53.254;6.594;2022-11-14T04:42:00;60.17;;;48.50;;
51594;SDS011;37677;53.254;6.594;2022-11-14T04:44:25;58.75;;;48.78;;
51594;SDS011;37677;53.254;6.594;2022-11-14T04:46:51;57.78;;;45.95;;
51594;SDS011;37677;53.254;6.594;2022-11-14T04:49:17;58.20;;;48.28;;
51594;SDS011;37677;53.254;6.594;2022-11-14T04:51:42;58.85;;;49.45;;
51594;SDS011;37677;53.254;6.594;2022-11-14T04:54:08;58.60;;;48.45;;
51594;SDS011;37677;53.254;6.594;2022-11-14T04:56:34;63.30;;;49.40;;
51594;SDS011;37677;53.254;6.594;2022-11-14T04:59:00;62.00;;;47.65;;
51594;SDS011;37677;53.254;6.594;2022-11-14T05:01:25;57.28;;;48.53;;
51594;SDS011;37677;53.254;6.594;2022-11-14T05:03:51;58.20;;;46.65;;
51594;SDS011;37677;53.254;6.594;2022-11-14T05:06:16;57.17;;;45.88;;
51594;SDS011;37677;53.254;6.594;2022-11-14T05:08:42;59.00;;;46.67;;
51594;SDS011;37677;53.254;6.594;2022-11-14T05:11:12;59.55;;;46.67;;
51594;SDS011;37677;53.254;6.594;2022-11-14T05:13:39;57.58;;;46.55;;
51594;SDS011;37677;53.254;6.594;2022-11-14T05:16:05;57.08;;;45.22;;
51594;SDS011;37677;53.254;6.594;2022-11-14T05:18:30;56.72;;;44.35;;
51594;SDS011;37677;53.254;6.594;2022-11-14T05:20:57;58.85;;;46.17;;
51594;SDS011;37677;53.254;6.594;2022-11-14T05:23:23;54.20;;;48.30;;
51594;SDS011;37677;53.254;6.594;2022-11-14T05:28:29;55.08;;;43.53;;
51594;SDS011;37677;53.254;6.594;2022-11-14T05:33:27;53.78;;;43.13;;
51594;SDS011;37677;53.254;6.594;2022-11-14T05:35:53;54.88;;;43.83;;
51594;SDS011;37677;53.254;6.594;2022-11-14T05:38:19;56.28;;;42.95;;
51594;SDS011;37677;53.254;6.594;2022-11-14T05:40:45;56.15;;;42.30;;
51594;SDS011;37677;53.254;6.594;2022-11-14T05:43:10;57.72;;;42.83;;
51594;SDS011;37677;53.254;6.594;2022-11-14T05:45:36;51.47;;;41.95;;
51594;SDS011;37677;53.254;6.594;2022-11-14T05:48:01;53.88;;;41.60;;
51594;SDS011;37677;53.254;6.594;2022-11-14T05:50:27;51.13;;;42.20;;
51594;SDS011;37677;53.254;6.594;2022-11-14T05:52:54;52.40;;;41.55;;
51594;SDS011;37677;53.254;6.594;2022-11-14T05:55:20;52.25;;;40.55;;
51594;SDS011;37677;53.254;6.594;2022-11-14T05:57:46;49.55;;;39.97;;
51594;SDS011;37677;53.254;6.594;2022-11-14T06:00:12;56.25;;;42.13;;
51594;SDS011;37677;53.254;6.594;2022-11-14T06:02:38;52.67;;;42.05;;
51594;SDS011;37677;53.254;6.594;2022-11-14T06:05:03;51.75;;;41.97;;
51594;SDS011;37677;53.254;6.594;2022-11-14T06:07:29;54.00;;;41.88;;
51594;SDS011;37677;53.254;6.594;2022-11-14T06:09:55;53.00;;;41.75;;
51594;SDS011;37677;53.254;6.594;2022-11-14T06:12:21;53.80;;;41.42;;
51594;SDS011;37677;53.254;6.594;2022-11-14T06:14:46;57.17;;;42.70;;
51594;SDS011;37677;53.254;6.594;2022-11-14T06:17:12;57.58;;;43.00;;
51594;SDS011;37677;53.254;6.594;2022-11-14T06:19:38;54.67;;;41.75;;
51594;SDS011;37677;53.254;6.594;2022-11-14T06:22:03;58.00;;;43.70;;
51594;SDS011;37677;53.254;6.594;2022-11-14T06:24:29;56.92;;;42.70;;
51594;SDS011;37677;53.254;6.594;2022-11-14T06:26:55;56.83;;;42.30;;
51594;SDS011;37677;53.254;6.594;2022-11-14T06:29:20;60.70;;;44.47;;
51594;SDS011;37677;53.254;6.594;2022-11-14T06:31:46;60.70;;;43.35;;
51594;SDS011;37677;53.254;6.594;2022-11-14T06:34:11;60.78;;;44.47;;
51594;SDS011;37677;53.254;6.594;2022-11-14T06:36:37;62.70;;;45.22;;
51594;SDS011;37677;53.254;6.594;2022-11-14T06:39:03;59.53;;;42.92;;
51594;SDS011;37677;53.254;6.594;2022-11-14T06:41:28;61.83;;;42.92;;
51594;SDS011;37677;53.254;6.594;2022-11-14T06:43:54;56.75;;;41.45;;
51594;SDS011;37677;53.254;6.594;2022-11-14T06:46:20;57.53;;;42.15;;
51594;SDS011;37677;53.254;6.594;2022-11-14T06:48:47;54.90;;;42.08;;
51594;SDS011;37677;53.254;6.594;2022-11-14T06:51:15;57.60;;;42.00;;
51594;SDS011;37677;53.254;6.594;2022-11-14T06:53:41;59.85;;;42.65;;
51594;SDS011;37677;53.254;6.594;2022-11-14T06:56:09;57.70;;;42.05;;
51594;SDS011;37677;53.254;6.594;2022-11-14T06:58:40;59.15;;;42.15;;
51594;SDS011;37677;53.254;6.594;2022-11-14T07:01:11;64.07;;;42.35;;
51594;SDS011;37677;53.254;6.594;2022-11-14T07:03:39;59.38;;;42.05;;
51594;SDS011;37677;53.254;6.594;2022-11-14T07:06:05;59.65;;;41.92;;
51594;SDS011;37677;53.254;6.594;2022-11-14T07:08:32;59.35;;;41.38;;
51594;SDS011;37677;53.254;6.594;2022-11-14T07:11:00;59.08;;;41.80;;
51594;SDS011;37677;53.254;6.594;2022-11-14T07:13:26;63.67;;;42.80;;
51594;SDS011;37677;53.254;6.594;2022-11-14T07:15:52;60.72;;;42.75;;
51594;SDS011;37677;53.254;6.594;2022-11-14T07:18:19;61.00;;;42.17;;
51594;SDS011;37677;53.254;6.594;2022-11-14T07:20:45;60.25;;;42.20;;
51594;SDS011;37677;53.254;6.594;2022-11-14T07:23:11;59.90;;;42.83;;
51594;SDS011;37677;53.254;6.594;2022-11-14T07:25:37;64.45;;;44.00;;
51594;SDS011;37677;53.254;6.594;2022-11-14T07:28:03;66.85;;;43.65;;
51594;SDS011;37677;53.254;6.594;2022-11-14T07:30:29;62.35;;;43.35;;
51594;SDS011;37677;53.254;6.594;2022-11-14T07:32:55;57.67;;;41.33;;
51594;SDS011;37677;53.254;6.594;2022-11-14T07:35:21;59.42;;;42.30;;
51594;SDS011;37677;53.254;6.594;2022-11-14T07:37:47;59.15;;;42.25;;
51594;SDS011;37677;53.254;6.594;2022-11-14T07:40:13;58.60;;;41.95;;
51594;SDS011;37677;53.254;6.594;2022-11-14T07:42:39;60.75;;;40.58;;
51594;SDS011;37677;53.254;6.594;2022-11-14T07:45:05;60.03;;;42.65;;
51594;SDS011;37677;53.254;6.594;2022-11-14T07:47:31;63.70;;;42.13;;
51594;SDS011;37677;53.254;6.594;2022-11-14T07:49:56;60.97;;;42.58;;
51594;SDS011;37677;53.254;6.594;2022-11-14T07:52:22;62.17;;;42.92;;
51594;SDS011;37677;53.254;6.594;2022-11-14T07:54:48;62.90;;;43.38;;
51594;SDS011;37677;53.254;6.594;2022-11-14T07:57:13;62.58;;;43.35;;
51594;SDS011;37677;53.254;6.594;2022-11-14T07:59:39;64.93;;;44.65;;
51594;SDS011;37677;53.254;6.594;2022-11-14T08:02:05;65.10;;;44.63;;
51594;SDS011;37677;53.254;6.594;2022-11-14T08:04:30;64.88;;;43.42;;
51594;SDS011;37677;53.254;6.594;2022-11-14T08:06:56;64.15;;;44.22;;
51594;SDS011;37677;53.254;6.594;2022-11-14T08:09:22;61.67;;;42.85;;
51594;SDS011;37677;53.254;6.594;2022-11-14T08:11:47;64.55;;;46.25;;
51594;SDS011;37677;53.254;6.594;2022-11-14T08:14:13;63.10;;;43.10;;
51594;SDS011;37677;53.254;6.594;2022-11-14T08:16:40;67.57;;;44.78;;
51594;SDS011;37677;53.254;6.594;2022-11-14T08:19:06;58.67;;;42.70;;
51594;SDS011;37677;53.254;6.594;2022-11-14T08:21:31;61.15;;;41.33;;
51594;SDS011;37677;53.254;6.594;2022-11-14T08:23:57;59.58;;;42.47;;
51594;SDS011;37677;53.254;6.594;2022-11-14T08:26:23;59.25;;;42.75;;
51594;SDS011;37677;53.254;6.594;2022-11-14T08:28:52;56.70;;;41.08;;
51594;SDS011;37677;53.254;6.594;2022-11-14T08:31:18;66.97;;;42.50;;
51594;SDS011;37677;53.254;6.594;2022-11-14T08:33:45;61.03;;;41.38;;
51594;SDS011;37677;53.254;6.594;2022-11-14T08:36:11;60.70;;;42.63;;
51594;SDS011;37677;53.254;6.594;2022-11-14T08:38:36;58.22;;;42.17;;
51594;SDS011;37677;53.254;6.594;2022-11-14T08:41:02;60.50;;;42.58;;
51594;SDS011;37677;53.254;6.594;2022-11-14T08:43:29;58.10;;;41.00;;
51594;SDS011;37677;53.254;6.594;2022-11-14T08:45:59;57.53;;;41.35;;
51594;SDS011;37677;53.254;6.594;2022-11-14T08:48:25;57.15;;;41.33;;
51594;SDS011;37677;53.254;6.594;2022-11-14T08:50:51;56.85;;;39.88;;
51594;SDS011;37677;53.254;6.594;2022-11-14T08:53:17;57.60;;;39.30;;
51594;SDS011;37677;53.254;6.594;2022-11-14T08:55:44;56.78;;;40.97;;
51594;SDS011;37677;53.254;6.594;2022-11-14T08:58:10;54.72;;;40.33;;
51594;SDS011;37677;53.254;6.594;2022-11-14T09:00:36;58.05;;;41.40;;
51594;SDS011;37677;53.254;6.594;2022-11-14T09:03:06;56.63;;;42.22;;
51594;SDS011;37677;53.254;6.594;2022-11-14T09:05:33;51.83;;;38.58;;
51594;SDS011;37677;53.254;6.594;2022-11-14T09:07:59;53.80;;;39.55;;
51594;SDS011;37677;53.254;6.594;2022-11-14T09:10:25;56.92;;;41.33;;
51594;SDS011;37677;53.254;6.594;2022-11-14T09:12:54;55.70;;;40.30;;
51594;SDS011;37677;53.254;6.594;2022-11-14T09:15:20;55.13;;;40.75;;
51594;SDS011;37677;53.254;6.594;2022-11-14T09:17:46;53.97;;;40.10;;
51594;SDS011;37677;53.254;6.594;2022-11-14T09:20:12;58.80;;;42.17;;
51594;SDS011;37677;53.254;6.594;2022-11-14T09:22:38;53.03;;;40.75;;
51594;SDS011;37677;53.254;6.594;2022-11-14T09:25:04;55.38;;;39.95;;
51594;SDS011;37677;53.254;6.594;2022-11-14T09:27:30;52.08;;;39.70;;
51594;SDS011;37677;53.254;6.594;2022-11-14T09:29:56;53.45;;;39.78;;
51594;SDS011;37677;53.254;6.594;2022-11-14T09:32:22;53.53;;;40.05;;
51594;SDS011;37677;53.254;6.594;2022-11-14T09:34:47;54.15;;;40.08;;
51594;SDS011;37677;53.254;6.594;2022-11-14T09:37:13;53.63;;;39.85;;
51594;SDS011;37677;53.254;6.594;2022-11-14T09:39:38;53.67;;;40.22;;
51594;SDS011;37677;53.254;6.594;2022-11-14T09:47:22;55.13;;;40.67;;
51594;SDS011;37677;53.254;6.594;2022-11-14T09:50:10;48.03;;;38.40;;
51594;SDS011;37677;53.254;6.594;2022-11-14T09:52:42;53.13;;;40.83;;
51594;SDS011;37677;53.254;6.594;2022-11-14T09:55:17;56.28;;;40.97;;
51594;SDS011;37677;53.254;6.594;2022-11-14T09:57:45;52.42;;;40.53;;
51594;SDS011;37677;53.254;6.594;2022-11-14T10:11:07;58.70;;;39.80;;
51594;SDS011;37677;53.254;6.594;2022-11-14T10:13:52;48.78;;;38.47;;
51594;SDS011;37677;53.254;6.594;2022-11-14T10:22:14;52.20;;;37.13;;
51594;SDS011;37677;53.254;6.594;2022-11-14T10:30:21;46.05;;;37.33;;
51594;SDS011;37677;53.254;6.594;2022-11-14T10:32:49;50.97;;;37.72;;
51594;SDS011;37677;53.254;6.594;2022-11-14T10:41:15;49.75;;;38.03;;
51594;SDS011;37677;53.254;6.594;2022-11-14T10:43:47;46.55;;;37.00;;
51594;SDS011;37677;53.254;6.594;2022-11-14T10:46:25;44.03;;;36.75;;
51594;SDS011;37677;53.254;6.594;2022-11-14T10:49:10;46.45;;;37.75;;
51594;SDS011;37677;53.254;6.594;2022-11-14T10:51:46;45.67;;;35.70;;
51594;SDS011;37677;53.254;6.594;2022-11-14T10:56:57;46.83;;;35.80;;
51594;SDS011;37677;53.254;6.594;2022-11-14T10:59:23;42.25;;;36.63;;
51594;SDS011;37677;53.254;6.594;2022-11-14T11:04:34;45.88;;;37.08;;
51594;SDS011;37677;53.254;6.594;2022-11-14T11:09:33;43.63;;;35.50;;
51594;SDS011;37677;53.254;6.594;2022-11-14T11:20:28;47.00;;;37.42;;
51594;SDS011;37677;53.254;6.594;2022-11-14T11:25:35;43.75;;;36.08;;
51594;SDS011;37677;53.254;6.594;2022-11-14T11:28:06;47.45;;;38.63;;
51594;SDS011;37677;53.254;6.594;2022-11-14T11:30:34;47.25;;;39.25;;
51594;SDS011;37677;53.254;6.594;2022-11-14T11:33:43;46.65;;;37.72;;
51594;SDS011;37677;53.254;6.594;2022-11-14T11:35:52;43.78;;;35.60;;
51594;SDS011;37677;53.254;6.594;2022-11-14T11:38:20;43.78;;;36.80;;
51594;SDS011;37677;53.254;6.594;2022-11-14T11:40:49;45.90;;;37.65;;
51594;SDS011;37677;53.254;6.594;2022-11-14T11:43:28;44.28;;;37.33;;
51594;SDS011;37677;53.254;6.594;2022-11-14T11:45:59;46.25;;;36.50;;
51594;SDS011;37677;53.254;6.594;2022-11-14T11:48:33;46.33;;;38.38;;
51594;SDS011;37677;53.254;6.594;2022-11-14T11:51:03;44.20;;;36.25;;
51594;SDS011;37677;53.254;6.594;2022-11-14T11:53:33;45.22;;;37.10;;
51594;SDS011;37677;53.254;6.594;2022-11-14T11:56:04;48.50;;;36.70;;
51594;SDS011;37677;53.254;6.594;2022-11-14T11:58:46;42.47;;;34.75;;
51594;SDS011;37677;53.254;6.594;2022-11-14T12:01:14;45.08;;;35.72;;
51594;SDS011;37677;53.254;6.594;2022-11-14T12:03:46;44.22;;;34.40;;
51594;SDS011;37677;53.254;6.594;2022-11-14T12:06:16;46.65;;;37.28;;
51594;SDS011;37677;53.254;6.594;2022-11-14T12:11:29;42.58;;;34.35;;
51594;SDS011;37677;53.254;6.594;2022-11-14T12:28:04;45.75;;;37.15;;
51594;SDS011;37677;53.254;6.594;2022-11-14T12:30:33;44.97;;;37.65;;
51594;SDS011;37677;53.254;6.594;2022-11-14T12:35:55;46.40;;;37.22;;
51594;SDS011;37677;53.254;6.594;2022-11-14T12:38:23;45.42;;;36.90;;
51594;SDS011;37677;53.254;6.594;2022-11-14T12:40:55;45.30;;;38.00;;
51594;SDS011;37677;53.254;6.594;2022-11-14T12:45:59;45.42;;;35.83;;
51594;SDS011;37677;53.254;6.594;2022-11-14T12:50:55;42.35;;;34.80;;
51594;SDS011;37677;53.254;6.594;2022-11-14T13:12:38;40.35;;;30.98;;
51594;SDS011;37677;53.254;6.594;2022-11-14T13:18:23;39.20;;;31.10;;
51594;SDS011;37677;53.254;6.594;2022-11-14T13:21:24;35.95;;;29.52;;
51594;SDS011;37677;53.254;6.594;2022-11-14T13:24:17;38.95;;;30.55;;
51594;SDS011;37677;53.254;6.594;2022-11-14T13:26:53;35.65;;;30.08;;
51594;SDS011;37677;53.254;6.594;2022-11-14T13:30:05;36.25;;;29.90;;
51594;SDS011;37677;53.254;6.594;2022-11-14T13:32:09;38.47;;;30.93;;
51594;SDS011;37677;53.254;6.594;2022-11-14T13:37:24;40.10;;;30.48;;
51594;SDS011;37677;53.254;6.594;2022-11-14T13:40:11;37.80;;;30.75;;
51594;SDS011;37677;53.254;6.594;2022-11-14T13:43:04;34.83;;;29.42;;
51594;SDS011;37677;53.254;6.594;2022-11-14T13:45:58;37.28;;;29.67;;
51594;SDS011;37677;53.254;6.594;2022-11-14T13:51:14;38.55;;;31.00;;
51594;SDS011;37677;53.254;6.594;2022-11-14T13:53:41;36.53;;;29.98;;
51594;SDS011;37677;53.254;6.594;2022-11-14T14:11:58;37.78;;;30.90;;
51594;SDS011;37677;53.254;6.594;2022-11-14T14:20:27;33.15;;;27.83;;
51594;SDS011;37677;53.254;6.594;2022-11-14T14:23:00;33.83;;;27.98;;
51594;SDS011;37677;53.254;6.594;2022-11-14T14:31:15;34.58;;;27.42;;
51594;SDS011;37677;53.254;6.594;2022-11-14T14:33:47;34.60;;;28.48;;
51594;SDS011;37677;53.254;6.594;2022-11-14T14:38:41;34.70;;;28.30;;
51594;SDS011;37677;53.254;6.594;2022-11-14T14:41:06;32.15;;;27.27;;
51594;SDS011;37677;53.254;6.594;2022-11-14T14:43:33;34.00;;;27.42;;
51594;SDS011;37677;53.254;6.594;2022-11-14T14:45:59;32.53;;;26.38;;
51594;SDS011;37677;53.254;6.594;2022-11-14T14:48:26;32.33;;;25.48;;
51594;SDS011;37677;53.254;6.594;2022-11-14T14:50:56;32.53;;;27.02;;
51594;SDS011;37677;53.254;6.594;2022-11-14T14:53:27;34.38;;;25.00;;
51594;SDS011;37677;53.254;6.594;2022-11-14T14:56:04;31.10;;;26.02;;
51594;SDS011;37677;53.254;6.594;2022-11-14T14:58:32;33.33;;;27.02;;
51594;SDS011;37677;53.254;6.594;2022-11-14T15:03:41;32.17;;;26.35;;
51594;SDS011;37677;53.254;6.594;2022-11-14T15:06:20;32.92;;;26.33;;
51594;SDS011;37677;53.254;6.594;2022-11-14T15:08:54;30.73;;;27.00;;
51594;SDS011;37677;53.254;6.594;2022-11-14T15:11:21;33.08;;;27.52;;
51594;SDS011;37677;53.254;6.594;2022-11-14T15:13:49;33.17;;;27.42;;
51594;SDS011;37677;53.254;6.594;2022-11-14T15:16:19;31.50;;;25.45;;
51594;SDS011;37677;53.254;6.594;2022-11-14T15:18:45;37.53;;;27.17;;
51594;SDS011;37677;53.254;6.594;2022-11-14T15:21:15;34.03;;;27.48;;
51594;SDS011;37677;53.254;6.594;2022-11-14T15:26:44;31.63;;;26.13;;
51594;SDS011;37677;53.254;6.594;2022-11-14T15:29:17;38.00;;;28.60;;
51594;SDS011;37677;53.254;6.594;2022-11-14T15:31:52;32.92;;;26.73;;
51594;SDS011;37677;53.254;6.594;2022-11-14T15:39:34;35.03;;;27.98;;
51594;SDS011;37677;53.254;6.594;2022-11-14T15:44:44;37.97;;;29.48;;
51594;SDS011;37677;53.254;6.594;2022-11-14T15:47:11;48.22;;;31.63;;
51594;SDS011;37677;53.254;6.594;2022-11-14T15:52:37;44.22;;;34.10;;
51594;SDS011;37677;53.254;6.594;2022-11-14T15:55:20;41.15;;;32.10;;
51594;SDS011;37677;53.254;6.594;2022-11-14T15:57:47;45.05;;;32.85;;
51594;SDS011;37677;53.254;6.594;2022-11-14T16:00:14;44.22;;;32.95;;
51594;SDS011;37677;53.254;6.594;2022-11-14T16:02:51;45.03;;;33.13;;
51594;SDS011;37677;53.254;6.594;2022-11-14T16:05:23;42.30;;;32.30;;
51594;SDS011;37677;53.254;6.594;2022-11-14T16:07:54;39.35;;;31.58;;
51594;SDS011;37677;53.254;6.594;2022-11-14T16:10:21;44.83;;;33.42;;
51594;SDS011;37677;53.254;6.594;2022-11-14T16:12:51;43.20;;;34.25;;
51594;SDS011;37677;53.254;6.594;2022-11-14T16:15:17;45.22;;;33.08;;
51594;SDS011;37677;53.254;6.594;2022-11-14T16:17:44;38.10;;;31.55;;
51594;SDS011;37677;53.254;6.594;2022-11-14T16:22:45;41.55;;;31.73;;
51594;SDS011;37677;53.254;6.594;2022-11-14T16:25:15;39.85;;;32.25;;
51594;SDS011;37677;53.254;6.594;2022-11-14T16:27:44;37.05;;;29.88;;
51594;SDS011;37677;53.254;6.594;2022-11-14T16:30:11;41.17;;;30.70;;
51594;SDS011;37677;53.254;6.594;2022-11-14T16:32:38;38.03;;;30.92;;
51594;SDS011;37677;53.254;6.594;2022-11-14T16:35:10;43.05;;;31.30;;
51594;SDS011;37677;53.254;6.594;2022-11-14T16:37:37;39.60;;;30.92;;
51594;SDS011;37677;53.254;6.594;2022-11-14T16:40:03;41.42;;;32.00;;
51594;SDS011;37677;53.254;6.594;2022-11-14T16:42:30;39.20;;;30.02;;
51594;SDS011;37677;53.254;6.594;2022-11-14T16:45:02;38.78;;;30.05;;
51594;SDS011;37677;53.254;6.594;2022-11-14T16:47:28;38.33;;;29.80;;
51594;SDS011;37677;53.254;6.594;2022-11-14T16:49:56;35.15;;;29.95;;
51594;SDS011;37677;53.254;6.594;2022-11-14T16:52:21;34.85;;;28.95;;
51594;SDS011;37677;53.254;6.594;2022-11-14T16:54:47;36.17;;;28.67;;
51594;SDS011;37677;53.254;6.594;2022-11-14T16:57:13;36.78;;;28.75;;
51594;SDS011;37677;53.254;6.594;2022-11-14T16:59:39;35.95;;;28.67;;
51594;SDS011;37677;53.254;6.594;2022-11-14T17:02:04;34.78;;;27.42;;
51594;SDS011;37677;53.254;6.594;2022-11-14T17:04:30;34.60;;;29.38;;
51594;SDS011;37677;53.254;6.594;2022-11-14T17:06:56;36.95;;;29.02;;